Jakin, Georgia
Current Conditions -  °F | °C
As of 3:15 PM on Sunday 23 Nov 2014 (Local Time) from KMAI Reporting Station
Light Rain Light Rain  
Wind Chill: 66°   Ceiling: 5000
Heat Index: 66°   Visibility: 9mi
Dew Point: 65°   Wind: 9mph
Humidity: 96%   Direction: 240°WSW
Pressure: 29.79"   Gusts: NA
Location:  31.09°N, 84.98°W
Report Text: KMAI 232015Z AUTO 24008KT 9SM -RA FEW042 BKN050 OVC085 19/18 A2979 RMK AO2 LTG DSNT N-SE TSE07 P0001 T01890183 $
Loading
Personal Weather Stations






























Interactive Weather Map New forecast layout! Learn more

10-Day Weather Forecast

Advertisements
Track Severe Weather on mobile